createdAt,value
2022-12-26T00:11:37.914Z,0.01
2022-12-26T00:13:55.424Z,0.02
2022-12-26T00:15:58.756Z,0.01
2022-12-26T00:21:28.169Z,0.02
2022-12-26T00:23:51.832Z,0.01
2022-12-26T00:26:01.389Z,0.02
2022-12-26T00:28:59.519Z,0.01
2022-12-26T00:46:18.595Z,0.02
2022-12-26T00:48:26.392Z,0.01
2022-12-26T00:51:22.097Z,0.02
2022-12-26T00:56:32.369Z,0.01
2022-12-26T00:58:46.224Z,0.02
2022-12-26T01:00:46.148Z,0.01
2022-12-26T01:10:34.633Z,0.02
2022-12-26T01:22:45.738Z,0.01
2022-12-26T01:25:32.277Z,0.02
2022-12-26T01:40:23.211Z,0.01
2022-12-26T01:42:33.317Z,0.02
2022-12-26T02:54:57.979Z,0.01
2022-12-26T02:57:23.325Z,0.02
2022-12-26T03:11:09.604Z,0.03
2022-12-26T03:14:01.459Z,0.02
2022-12-26T03:19:02.857Z,0.03
2022-12-26T03:24:10.454Z,0.02
2022-12-26T03:31:40.041Z,0.03
2022-12-26T03:33:41.881Z,0.02
2022-12-26T03:36:32.423Z,0.03
2022-12-26T03:41:30.036Z,0.02
2022-12-26T04:20:45.862Z,0.01
2022-12-26T04:30:34.218Z,0.02
2022-12-26T04:35:37.345Z,0.03
2022-12-26T04:37:47.922Z,0.02
2022-12-26T04:43:47.784Z,0.03
2022-12-26T04:55:49.145Z,0.02
2022-12-26T05:30:39.908Z,0.03
2022-12-26T05:32:52.839Z,0.04
2022-12-26T05:34:51.827Z,0.03
2022-12-26T05:54:36.671Z,0.04
2022-12-26T06:01:55.348Z,0.03
2022-12-26T06:13:35.208Z,0.04
2022-12-26T06:23:41.975Z,0.05
2022-12-26T06:26:41.017Z,0.04
2022-12-26T06:39:06.839Z,0.05
2022-12-26T06:41:43.610Z,0.08
2022-12-26T06:44:06.547Z,0.09
2022-12-26T06:46:15.291Z,0.13
2022-12-26T06:49:12.297Z,0.11
2022-12-26T06:51:55.484Z,0.19
2022-12-26T06:54:24.035Z,0.25
2022-12-26T06:56:38.909Z,0.47
2022-12-26T06:58:39.815Z,0.74
2022-12-26T07:01:29.182Z,0.8
2022-12-26T07:04:04.131Z,0.81
2022-12-26T07:06:25.059Z,0.68
2022-12-26T07:08:31.996Z,1.09
2022-12-26T07:11:27.365Z,2.13
2022-12-26T07:14:08.590Z,2.77
2022-12-26T07:16:35.894Z,3.13
2022-12-26T07:18:48.789Z,3.19
2022-12-26T07:20:47.654Z,3.8
2022-12-26T07:23:35.228Z,5.05
2022-12-26T07:26:08.651Z,8.27
2022-12-26T07:28:27.950Z,12.51
2022-12-26T07:30:33.290Z,20.28
2022-12-26T07:33:26.954Z,19.48
2022-12-26T07:36:06.521Z,22.23
2022-12-26T07:38:31.885Z,52.12
2022-12-26T07:40:43.400Z,39.79
2022-12-26T07:42:40.722Z,21.6
2022-12-26T07:45:26.050Z,10.36
2022-12-26T07:47:57.762Z,11.78
2022-12-26T07:50:15.373Z,12.02
2022-12-26T07:52:18.779Z,18.48
2022-12-26T07:55:10.773Z,29.39
2022-12-26T07:57:49.333Z,42.58
2022-12-26T08:00:12.350Z,47.54
2022-12-26T08:02:22.560Z,38.6
2022-12-26T08:05:20.248Z,55.04
2022-12-26T08:08:04.336Z,62.52
2022-12-26T08:10:34.127Z,119.04
2022-12-26T08:12:50.035Z,154.04
2022-12-26T08:14:51.673Z,154.4
2022-12-26T08:17:41.784Z,152.2
2022-12-26T08:20:17.905Z,138.2
2022-12-26T08:22:39.902Z,135.44
2022-12-26T08:24:47.695Z,168.5
2022-12-26T08:27:44.130Z,187.2
2022-12-26T08:30:26.500Z,161.88
2022-12-26T08:32:54.703Z,145.2
2022-12-26T08:35:08.625Z,187.7
2022-12-26T08:37:08.155Z,228.9
2022-12-26T08:39:56.554Z,244.6
2022-12-26T08:42:30.815Z,261.6
2022-12-26T08:44:51.118Z,254.2
2022-12-26T08:46:57.147Z,296.1
2022-12-26T08:49:51.714Z,267.8
2022-12-26T08:52:32.334Z,193.9
2022-12-26T08:54:58.782Z,218.8
2022-12-26T08:57:11.087Z,258.7
2022-12-26T08:59:09.475Z,255.1
2022-12-26T09:01:56.305Z,271
2022-12-26T09:04:28.910Z,219
2022-12-26T09:06:47.385Z,209.2
2022-12-26T09:08:51.922Z,228.2
2022-12-26T09:11:44.928Z,286.9
2022-12-26T09:14:23.732Z,313.6
2022-12-26T09:16:50.628Z,286.8
2022-12-26T09:18:59.118Z,300.4
2022-12-26T09:21:58.162Z,369.4
2022-12-26T09:24:43.224Z,293
2022-12-26T09:27:14.103Z,220.4
2022-12-26T09:29:30.478Z,234.6
2022-12-26T09:31:33.316Z,286.8
2022-12-26T09:34:24.605Z,301.4
2022-12-26T09:37:01.650Z,333.4
2022-12-26T09:39:24.529Z,406.5
2022-12-26T09:41:33.414Z,494.4
2022-12-26T09:44:30.779Z,446
2022-12-26T09:47:13.943Z,403.2
2022-12-26T09:49:43.028Z,365.7
2022-12-26T09:51:58.026Z,354.4
2022-12-26T09:53:58.847Z,382.8
2022-12-26T09:57:04.108Z,447.3
2022-12-26T09:59:23.709Z,409.7
2022-12-26T10:01:45.010Z,383.2
2022-12-26T10:03:52.027Z,355.6
2022-12-26T10:06:47.611Z,389.2
2022-12-26T10:09:29.004Z,286.9
2022-12-26T10:11:56.198Z,239.9
2022-12-26T10:14:09.460Z,250.2
2022-12-26T10:16:08.523Z,241.2
2022-12-26T10:18:55.987Z,307.2
2022-12-26T10:21:29.052Z,432.8
2022-12-26T10:23:48.390Z,316.8
2022-12-26T10:25:53.593Z,392.3
2022-12-26T10:28:47.367Z,436.3
2022-12-26T10:31:26.995Z,436.9
2022-12-26T10:33:52.553Z,531
2022-12-26T10:36:03.928Z,347.5
2022-12-26T10:38:01.195Z,200.8
2022-12-26T10:40:46.905Z,317
2022-12-26T10:43:18.503Z,326.5
2022-12-26T10:45:36.044Z,252.3
2022-12-26T10:47:39.402Z,289.9
2022-12-26T10:50:31.241Z,284.7
2022-12-26T10:53:09.058Z,220
2022-12-26T10:55:34.418Z,263.2
2022-12-26T10:57:42.302Z,364.1
2022-12-26T11:00:40.415Z,543.3
2022-12-26T11:03:24.498Z,630.7
2022-12-26T11:06:07.835Z,624
2022-12-26T11:08:09.698Z,629.4
2022-12-26T11:10:11.372Z,792
2022-12-26T11:13:01.119Z,995.8
2022-12-26T11:15:37.186Z,933.7
2022-12-26T11:17:59.159Z,926
2022-12-26T11:20:06.978Z,994.8
2022-12-26T11:23:03.171Z,947.2
2022-12-26T11:25:45.598Z,834.8
2022-12-26T11:28:13.750Z,779.8
2022-12-26T11:30:27.751Z,783
2022-12-26T11:32:27.767Z,840.9
2022-12-26T11:35:16.255Z,846.4
2022-12-26T11:37:50.448Z,864.9
2022-12-26T11:40:10.461Z,806
2022-12-26T11:42:16.539Z,874.8
2022-12-26T11:45:11.045Z,956.4
2022-12-26T11:47:51.300Z,784.9
2022-12-26T11:50:17.754Z,615
2022-12-26T11:52:30.018Z,370.2
2022-12-26T11:54:28.122Z,706.2
2022-12-26T11:57:14.784Z,619
2022-12-26T11:59:47.337Z,580.1
2022-12-26T12:02:05.690Z,593.4
2022-12-26T12:04:09.706Z,746.2
2022-12-26T12:07:02.459Z,418.2
2022-12-26T12:09:41.105Z,391.5
2022-12-26T12:12:05.579Z,450.4
2022-12-26T12:14:16.093Z,461.9
2022-12-26T12:17:14.876Z,347.6
2022-12-26T12:19:59.619Z,384.6
2022-12-26T12:22:30.465Z,663
2022-12-26T12:24:47.104Z,748.1
2022-12-26T12:26:53.053Z,710.4
2022-12-26T12:29:40.677Z,461.1
2022-12-26T12:32:17.599Z,392
2022-12-26T12:34:40.365Z,447.6
2022-12-26T12:36:49.228Z,543.6
2022-12-26T12:39:46.422Z,701.4
2022-12-26T12:42:29.512Z,835.2
2022-12-26T12:47:13.302Z,729.9
2022-12-26T12:49:13.979Z,664.9
2022-12-26T12:52:03.020Z,545.1
2022-12-26T12:54:38.099Z,432.6
2022-12-26T12:56:59.090Z,326.4
2022-12-26T12:59:05.610Z,235
2022-12-26T13:02:05.546Z,202.1
2022-12-26T13:04:42.404Z,243.8
2022-12-26T13:07:09.524Z,370.7
2022-12-26T13:09:22.355Z,306.1
2022-12-26T13:11:21.415Z,318
2022-12-26T13:14:08.775Z,320
2022-12-26T13:16:41.975Z,291.4
2022-12-26T13:19:01.286Z,220
2022-12-26T13:21:06.459Z,200
2022-12-26T13:23:59.957Z,259.6
2022-12-26T13:26:39.394Z,535.3
2022-12-26T13:29:04.769Z,444.8
2022-12-26T13:31:16.079Z,592.1
2022-12-26T13:33:13.300Z,499.3
2022-12-26T13:35:58.976Z,615.6
2022-12-26T13:38:30.502Z,629.7
2022-12-26T13:40:47.909Z,503.2
2022-12-26T13:42:51.218Z,330.8
2022-12-26T13:45:43.031Z,201.4
2022-12-26T13:48:20.479Z,164.8
2022-12-26T13:50:46.084Z,222
2022-12-26T13:52:53.673Z,219.7
2022-12-26T13:55:51.560Z,265
2022-12-26T13:58:35.524Z,213.7
2022-12-26T14:01:05.407Z,108.4
2022-12-26T14:03:21.395Z,111.76
2022-12-26T14:05:22.740Z,106
2022-12-26T14:08:12.677Z,69.44
2022-12-26T14:10:48.614Z,59.58
2022-12-26T14:13:10.323Z,42.44
2022-12-26T14:15:18.179Z,43.7
2022-12-26T14:18:14.452Z,57.38
2022-12-26T14:20:56.579Z,65.46
2022-12-26T14:23:24.728Z,77.06
2022-12-26T14:25:38.623Z,76.86
2022-12-26T14:27:38.392Z,94.64
2022-12-26T14:30:26.975Z,89.28
2022-12-26T14:33:01.862Z,95.84
2022-12-26T14:35:21.228Z,174.8
2022-12-26T14:37:27.364Z,140.48
2022-12-26T14:40:21.612Z,103.4
2022-12-26T14:43:02.084Z,34.69
2022-12-26T14:45:28.406Z,36.7
2022-12-26T14:47:40.694Z,41.28
2022-12-26T14:49:38.856Z,41.74
2022-12-26T14:52:25.413Z,57.74
2022-12-26T14:54:58.123Z,83.32
2022-12-26T14:57:16.578Z,72.7
2022-12-26T14:59:20.914Z,71.14
2022-12-26T15:02:14.089Z,54.68
2022-12-26T15:04:52.415Z,43.54
2022-12-26T15:07:20.687Z,39.99
2022-12-26T15:09:27.508Z,35.92
2022-12-26T15:12:26.568Z,34.35
2022-12-26T15:15:11.361Z,38.21
2022-12-26T15:17:42.021Z,25.57
2022-12-26T15:19:58.580Z,8.68
2022-12-26T15:22:00.989Z,6.25
2022-12-26T15:25:17.960Z,6.46
2022-12-26T15:27:28.726Z,6.69
2022-12-26T15:29:51.705Z,7.36
2022-12-26T15:31:59.724Z,8.11
2022-12-26T15:34:56.792Z,7.88
2022-12-26T15:37:39.735Z,4.72
2022-12-26T15:40:08.532Z,5.09
2022-12-26T15:42:23.156Z,5.45
2022-12-26T15:44:23.873Z,3.77
2022-12-26T15:47:12.980Z,2.31
2022-12-26T15:49:47.945Z,1.51
2022-12-26T15:52:08.994Z,1.35
2022-12-26T15:54:15.765Z,1.13
2022-12-26T15:57:10.979Z,0.78
2022-12-26T15:59:52.373Z,0.49
2022-12-26T16:02:19.673Z,0.34
2022-12-26T16:04:32.553Z,0.23
2022-12-26T16:06:31.661Z,0.15
2022-12-26T16:09:19.094Z,0.09
2022-12-26T16:11:33.403Z,0.08
2022-12-26T16:13:33.422Z,0.06
2022-12-26T16:18:56.414Z,0.05
2022-12-26T16:23:22.642Z,0.04
2022-12-26T16:26:17.300Z,0.05
2022-12-26T16:33:36.886Z,0.04
2022-12-26T16:35:35.172Z,0.05
2022-12-26T17:01:08.285Z,0.06
2022-12-26T17:03:39.165Z,0.05
2022-12-26T17:17:58.472Z,0.04
2022-12-26T17:38:09.925Z,0.03
2022-12-26T17:43:12.758Z,0.02
2022-12-26T17:52:33.978Z,0.03
2022-12-26T17:55:21.795Z,0.02
2022-12-26T18:05:13.930Z,0.03
2022-12-26T18:10:18.688Z,0.04
2022-12-26T18:12:30.308Z,0.03
2022-12-26T18:14:27.704Z,0.04
2022-12-26T18:24:06.423Z,0.05
2022-12-26T18:26:58.609Z,0.04
2022-12-26T18:29:36.597Z,0.05
2022-12-26T18:32:00.477Z,0.06
2022-12-26T18:34:10.288Z,0.05
2022-12-26T18:42:22.756Z,0.06
2022-12-26T18:44:38.737Z,0.05
2022-12-26T18:59:33.235Z,0.04
2022-12-26T19:08:57.219Z,0.03
2022-12-26T19:11:45.460Z,0.02
2022-12-26T19:21:40.085Z,0.03
2022-12-26T19:24:20.563Z,0.02
2022-12-26T19:28:59.211Z,0.03
2022-12-26T19:30:57.581Z,0.02
2022-12-26T19:36:16.764Z,0.01
2022-12-26T19:43:32.269Z,0.02
2022-12-26T19:50:45.762Z,0.03
2022-12-26T19:53:44.650Z,0.02
2022-12-26T19:56:29.699Z,0.03
2022-12-26T20:08:47.913Z,0.02
2022-12-26T20:28:34.054Z,0.03
2022-12-26T20:35:37.521Z,0.02
2022-12-26T21:07:49.639Z,0.03
2022-12-26T21:09:46.953Z,0.02
2022-12-26T21:15:04.103Z,0.04
2022-12-26T21:17:21.679Z,0.06
2022-12-26T21:19:25.156Z,0.03
2022-12-26T21:22:16.947Z,0.02
2022-12-26T21:29:28.126Z,0.01
2022-12-26T22:11:56.873Z,0.02
2022-12-26T22:22:04.648Z,0.03
2022-12-26T22:24:16.858Z,0.01
2022-12-26T22:29:01.357Z,0.02
2022-12-26T22:33:52.349Z,0.01
2022-12-26T23:16:48.450Z,0.02
2022-12-26T23:23:53.439Z,0.01
